createdAt,value
2022-10-11T00:00:32.723Z,100048.13
2022-10-11T00:02:04.649Z,100056.97
2022-10-11T00:03:36.645Z,100053.91
2022-10-11T00:05:09.036Z,100043.03
2022-10-11T00:06:43.488Z,100041.75
2022-10-11T00:08:15.988Z,100037.94
2022-10-11T00:09:47.881Z,100034.13
2022-10-11T00:11:19.804Z,100037.56
2022-10-11T00:12:54.473Z,100039.72
2022-10-11T00:14:44.179Z,100042.59
2022-10-11T00:16:27.074Z,100045.50
2022-10-11T00:18:10.910Z,100049.69
2022-10-11T00:19:54.730Z,100037.34
2022-10-11T00:21:38.613Z,100040.97
2022-10-11T00:23:28.313Z,100045.13
2022-10-11T00:25:14.502Z,100043.84
2022-10-11T00:26:56.900Z,100046.00
2022-10-11T00:28:47.161Z,100042.38
2022-10-11T00:30:35.335Z,100049.25
2022-10-11T00:32:18.915Z,100045.81
2022-10-11T00:34:04.301Z,100049.25
2022-10-11T00:35:48.887Z,100049.41
2022-10-11T00:37:36.102Z,100045.97
2022-10-11T00:39:28.245Z,100045.81
2022-10-11T00:41:18.614Z,100040.03
2022-10-11T00:43:12.005Z,100035.84
2022-10-11T00:45:16.331Z,100040.25
2022-10-11T00:47:24.547Z,100040.59
2022-10-11T00:49:27.480Z,100039.56
2022-10-11T00:51:36.632Z,100034.53
2022-10-11T00:53:26.140Z,100040.31
2022-10-11T00:55:17.282Z,100044.16
2022-10-11T00:57:03.017Z,100033.13
2022-10-11T00:58:47.217Z,100040.53
2022-10-11T01:00:34.840Z,100042.91
2022-10-11T01:02:19.457Z,100041.28
2022-10-11T01:04:06.251Z,100044.19
2022-10-11T01:05:57.442Z,100047.63
2022-10-11T01:07:47.494Z,100048.00
2022-10-11T01:09:37.722Z,100044.38
2022-10-11T01:11:27.562Z,100045.66
2022-10-11T01:13:43.214Z,100048.03
2022-10-11T01:15:36.270Z,100049.13
2022-10-11T01:17:35.251Z,100044.22
2022-10-11T01:19:31.071Z,100048.81
2022-10-11T01:21:22.667Z,100044.09
2022-10-11T01:23:05.231Z,100037.94
2022-10-11T01:25:04.351Z,100039.19
2022-10-11T01:27:05.918Z,100043.91
2022-10-11T01:28:59.060Z,100046.44
2022-10-11T01:30:44.180Z,100045.72
2022-10-11T01:32:33.615Z,100044.25
2022-10-11T01:34:26.296Z,100051.69
2022-10-11T01:36:27.778Z,100041.41
2022-10-11T01:38:18.035Z,100053.69
2022-10-11T01:40:08.820Z,100048.44
2022-10-11T01:41:56.196Z,100058.03
2022-10-11T01:43:43.421Z,100047.34
2022-10-11T01:45:28.245Z,100048.59
2022-10-11T01:47:21.968Z,100056.94
2022-10-11T01:49:05.906Z,100045.16
2022-10-11T01:50:56.082Z,100039.75
2022-10-11T01:52:43.930Z,100059.09
2022-10-11T01:55:04.362Z,100050.22
2022-10-11T01:57:04.375Z,100057.06
2022-10-11T01:59:07.075Z,100043.66
2022-10-11T02:01:00.949Z,100036.97
2022-10-11T02:03:15.657Z,100047.28
2022-10-11T02:05:06.769Z,100046.56
2022-10-11T02:06:56.957Z,100046.56
2022-10-11T02:08:51.193Z,100054.16
2022-10-11T02:10:50.777Z,100058.31
2022-10-11T02:12:41.367Z,100061.19
2022-10-11T02:14:26.586Z,100046.34
2022-10-11T02:16:12.812Z,100049.25
2022-10-11T02:17:59.070Z,100043.25
2022-10-11T02:19:47.573Z,100044.69
2022-10-11T02:21:38.079Z,100047.75
2022-10-11T02:23:29.847Z,100038.31
2022-10-11T02:25:18.846Z,100040.50
2022-10-11T02:27:09.793Z,100043.22
2022-10-11T02:28:55.842Z,100054.81
2022-10-11T02:30:41.110Z,100050.09
2022-10-11T02:32:25.588Z,100052.81
2022-10-11T02:34:20.671Z,100052.63
2022-10-11T02:36:11.093Z,100053.38
2022-10-11T02:38:02.478Z,100049.91
2022-10-11T02:39:52.645Z,100049.91
2022-10-11T02:41:40.111Z,100052.81
2022-10-11T02:43:57.438Z,100058.06
2022-10-11T02:45:50.706Z,100060.97
2022-10-11T02:47:36.417Z,100062.78
2022-10-11T02:49:30.902Z,100059.16
2022-10-11T02:51:17.811Z,100056.97
2022-10-11T02:53:01.545Z,100061.88
2022-10-11T02:54:45.373Z,100058.44
2022-10-11T02:56:29.123Z,100053.91
2022-10-11T02:58:15.924Z,100061.53
2022-10-11T03:00:02.685Z,100048.47
2022-10-11T03:01:46.370Z,100047.03
2022-10-11T03:03:32.776Z,100056.81
2022-10-11T03:05:16.187Z,100052.09
2022-10-11T03:07:05.918Z,100054.22
2022-10-11T03:08:48.511Z,100051.00
2022-10-11T03:10:41.455Z,100051.00
2022-10-11T03:12:25.654Z,100055.16
2022-10-11T03:14:18.510Z,100059.13
2022-10-11T03:16:05.599Z,100061.84
2022-10-11T03:17:49.297Z,100076.16
2022-10-11T03:19:38.130Z,100074.69
2022-10-11T03:21:26.700Z,100072.72
2022-10-11T03:23:13.478Z,100070.00
2022-10-11T03:25:00.968Z,100070.91
2022-10-11T03:26:47.657Z,100075.22
2022-10-11T03:28:32.898Z,100074.13
2022-10-11T03:30:18.531Z,100074.63
2022-10-11T03:32:05.731Z,100072.25
2022-10-11T03:33:57.700Z,100072.41
2022-10-11T03:35:48.149Z,100078.75
2022-10-11T03:37:37.715Z,100082.38
2022-10-11T03:39:26.307Z,100081.09
2022-10-11T03:41:08.959Z,100093.03
2022-10-11T03:42:56.859Z,100092.66
2022-10-11T03:44:45.821Z,100095.72
2022-10-11T03:46:29.920Z,100088.44
2022-10-11T03:48:15.710Z,100091.31
2022-10-11T03:49:59.084Z,100093.47
2022-10-11T03:51:57.826Z,100097.09
2022-10-11T03:53:44.057Z,100098.53
2022-10-11T03:55:29.131Z,100095.25
2022-10-11T03:57:19.036Z,100093.09
2022-10-11T03:59:04.097Z,100093.81
2022-10-11T04:00:47.496Z,100091.81
2022-10-11T04:02:39.314Z,100095.25
2022-10-11T04:04:34.983Z,100092.53
2022-10-11T04:06:18.785Z,100085.81
2022-10-11T04:08:11.988Z,100092.00
2022-10-11T04:09:56.332Z,100094.72
2022-10-11T04:11:39.720Z,100094.72
2022-10-11T04:13:23.470Z,100094.00
2022-10-11T04:15:08.510Z,100097.44
2022-10-11T04:17:00.411Z,100098.16
2022-10-11T04:18:45.442Z,100096.88
2022-10-11T04:20:28.294Z,100101.75
2022-10-11T04:22:13.147Z,100095.19
2022-10-11T04:23:56.319Z,100100.06
2022-10-11T04:25:51.463Z,100099.72
2022-10-11T04:27:35.609Z,100094.81
2022-10-11T04:29:19.099Z,100110.22
2022-10-11T04:31:05.254Z,100103.75
2022-10-11T04:32:49.696Z,100092.94
2022-10-11T04:34:36.591Z,100101.88
2022-10-11T04:36:26.713Z,100110.25
2022-10-11T04:38:18.854Z,100116.59
2022-10-11T04:40:07.438Z,100114.25
2022-10-11T04:41:58.730Z,100123.69
2022-10-11T04:43:44.389Z,100111.38
2022-10-11T04:45:28.435Z,100110.81
2022-10-11T04:47:15.216Z,100117.16
2022-10-11T04:48:59.848Z,100111.88
2022-10-11T04:50:45.019Z,100114.06
2022-10-11T04:52:33.681Z,100114.22
2022-10-11T04:54:17.092Z,100115.13
2022-10-11T04:56:10.985Z,100119.97
2022-10-11T04:57:56.251Z,100117.47
2022-10-11T04:59:40.097Z,100119.06
2022-10-11T05:01:25.377Z,100121.22
2022-10-11T05:03:15.825Z,100120.66
2022-10-11T05:04:59.062Z,100119.38
2022-10-11T05:06:48.802Z,100122.28
2022-10-11T05:08:37.797Z,100118.84
2022-10-11T05:10:25.591Z,100117.41
2022-10-11T05:12:09.078Z,100119.38
2022-10-11T05:13:58.420Z,100117.94
2022-10-11T05:15:43.034Z,100116.66
2022-10-11T05:17:27.934Z,100120.13
2022-10-11T05:19:13.337Z,100121.56
2022-10-11T05:21:01.913Z,100123.03
2022-10-11T05:22:43.796Z,100125.19
2022-10-11T05:24:27.541Z,100130.78
2022-10-11T05:26:16.256Z,100128.22
2022-10-11T05:27:58.796Z,100131.13
2022-10-11T05:29:46.571Z,100131.28
2022-10-11T05:31:29.689Z,100132.72
2022-10-11T05:33:16.545Z,100136.34
2022-10-11T05:35:04.515Z,100132.50
2022-10-11T05:36:47.404Z,100141.03
2022-10-11T05:38:34.182Z,100148.78
2022-10-11T05:40:19.197Z,100146.22
2022-10-11T05:42:10.049Z,100148.00
2022-10-11T05:43:55.785Z,100146.91
2022-10-11T05:45:40.107Z,100147.22
2022-10-11T05:47:25.183Z,100145.56
2022-10-11T05:49:08.385Z,100153.88
2022-10-11T05:50:59.396Z,100158.94
2022-10-11T05:52:48.408Z,100159.25
2022-10-11T05:54:38.016Z,100156.16
2022-10-11T05:56:28.186Z,100157.94
2022-10-11T05:58:18.644Z,100157.88
2022-10-11T06:00:05.261Z,100153.66
2022-10-11T06:01:56.105Z,100160.63
2022-10-11T06:03:38.761Z,100166.72
2022-10-11T06:05:28.619Z,100172.25
2022-10-11T06:07:14.251Z,100166.56
2022-10-11T06:08:59.140Z,100177.06
2022-10-11T06:10:44.862Z,100177.56
2022-10-11T06:12:28.526Z,100178.59
2022-10-11T06:14:50.511Z,100192.53
2022-10-11T06:16:58.501Z,100183.56
2022-10-11T06:18:56.376Z,100186.75
2022-10-11T06:21:06.352Z,100193.41
2022-10-11T06:23:03.100Z,100194.59
2022-10-11T06:25:03.356Z,100204.69
2022-10-11T06:27:01.257Z,100201.69
2022-10-11T06:29:03.500Z,100192.00
2022-10-11T06:31:13.892Z,100210.13
2022-10-11T06:33:22.433Z,100203.69
2022-10-11T06:35:26.400Z,100206.16
2022-10-11T06:37:25.109Z,100201.72
2022-10-11T06:39:23.774Z,100204.06
2022-10-11T06:41:28.624Z,100203.06
2022-10-11T06:43:38.310Z,100199.09
2022-10-11T06:45:45.620Z,100199.13
2022-10-11T06:47:49.731Z,100203.38
2022-10-11T06:49:52.666Z,100210.28
2022-10-11T06:52:05.228Z,100209.03
2022-10-11T06:54:08.267Z,100208.88
2022-10-11T06:56:14.486Z,100212.66
2022-10-11T06:58:12.664Z,100211.06
2022-10-11T07:00:13.045Z,100209.06
2022-10-11T07:02:16.032Z,100211.38
2022-10-11T07:04:12.717Z,100219.44
2022-10-11T07:06:11.198Z,100218.44
2022-10-11T07:08:18.770Z,100214.69
2022-10-11T07:10:26.893Z,100215.59
2022-10-11T07:12:31.167Z,100222.78
2022-10-11T07:15:05.799Z,100222.47
2022-10-11T07:17:14.901Z,100222.47
2022-10-11T07:19:12.205Z,100227.06
2022-10-11T07:21:14.899Z,100228.53
2022-10-11T07:22:55.961Z,100236.44
2022-10-11T07:25:07.064Z,100231.84
2022-10-11T07:27:15.034Z,100243.06
2022-10-11T07:29:13.790Z,100236.00
2022-10-11T07:31:16.571Z,100232.28
2022-10-11T07:33:20.908Z,100232.41
2022-10-11T07:35:36.535Z,100233.97
2022-10-11T07:37:38.091Z,100239.91
2022-10-11T07:39:39.709Z,100239.59
2022-10-11T07:41:45.910Z,100236.84
2022-10-11T07:43:49.584Z,100235.97
2022-10-11T07:45:55.672Z,100235.69
2022-10-11T07:48:09.041Z,100245.91
2022-10-11T07:50:13.223Z,100253.97
2022-10-11T07:52:13.314Z,100251.28
2022-10-11T07:54:20.965Z,100261.66
2022-10-11T07:56:21.684Z,100257.19
2022-10-11T07:58:23.308Z,100258.56
2022-10-11T08:00:20.714Z,100262.09
2022-10-11T08:02:34.433Z,100258.88
2022-10-11T08:04:30.906Z,100254.50
2022-10-11T08:06:32.679Z,100260.97
2022-10-11T08:08:33.318Z,100257.47
2022-10-11T08:10:42.554Z,100253.22
2022-10-11T08:12:43.317Z,100257.53
2022-10-11T08:14:54.669Z,100257.88
2022-10-11T08:17:10.773Z,100258.13
2022-10-11T08:19:10.139Z,100254.88
2022-10-11T08:21:14.809Z,100257.38
2022-10-11T08:23:16.557Z,100256.25
2022-10-11T08:24:57.931Z,100255.69
2022-10-11T08:27:03.914Z,100248.66
2022-10-11T08:29:05.240Z,100257.03
2022-10-11T08:31:21.401Z,100256.59
2022-10-11T08:33:24.859Z,100252.44
2022-10-11T08:35:31.374Z,100254.56
2022-10-11T08:37:35.298Z,100253.56
2022-10-11T08:39:33.604Z,100255.44
2022-10-11T08:42:00.091Z,100253.56
2022-10-11T08:44:13.680Z,100260.19
2022-10-11T08:46:29.094Z,100265.78
2022-10-11T08:48:38.181Z,100263.38
2022-10-11T08:50:41.186Z,100261.19
2022-10-11T08:53:22.360Z,100271.41
2022-10-11T08:55:34.838Z,100262.06
2022-10-11T08:58:01.214Z,100260.00
2022-10-11T09:00:03.464Z,100257.56
2022-10-11T09:01:54.684Z,100255.69
2022-10-11T09:03:44.247Z,100251.66
2022-10-11T09:05:47.045Z,100261.00
2022-10-11T09:07:56.829Z,100255.41
2022-10-11T09:09:55.785Z,100258.88
2022-10-11T09:11:40.182Z,100257.44
2022-10-11T09:13:34.126Z,100267.81
2022-10-11T09:15:47.030Z,100262.31
2022-10-11T09:17:43.953Z,100263.16
2022-10-11T09:19:28.772Z,100266.91
2022-10-11T09:21:27.773Z,100263.28
2022-10-11T09:23:17.049Z,100265.56
2022-10-11T09:25:07.424Z,100265.88
2022-10-11T09:26:55.219Z,100265.44
2022-10-11T09:28:32.008Z,100267.72
2022-10-11T09:30:06.555Z,100270.75
2022-10-11T09:31:38.495Z,100259.81
2022-10-11T09:33:10.436Z,100260.53
2022-10-11T09:34:43.015Z,100271.13
2022-10-11T09:36:32.769Z,100266.53
2022-10-11T09:38:07.703Z,100270.81
2022-10-11T09:39:45.157Z,100268.25
2022-10-11T09:41:35.623Z,100271.25
2022-10-11T09:43:09.288Z,100273.06
2022-10-11T09:44:48.892Z,100272.06
2022-10-11T09:46:31.882Z,100264.13
2022-10-11T09:48:05.038Z,100264.50
2022-10-11T09:49:42.682Z,100269.66
2022-10-11T09:51:19.427Z,100274.25
2022-10-11T09:52:51.600Z,100269.19
2022-10-11T09:54:37.441Z,100270.28
2022-10-11T09:56:09.825Z,100269.94
2022-10-11T09:57:42.044Z,100270.22
2022-10-11T09:59:13.951Z,100268.47
2022-10-11T10:00:56.795Z,100263.97
2022-10-11T10:02:30.404Z,100267.53
2022-10-11T10:04:07.646Z,100264.94
2022-10-11T10:05:39.709Z,100265.78
2022-10-11T10:07:13.322Z,100261.16
2022-10-11T10:08:47.478Z,100264.16
2022-10-11T10:10:27.247Z,100264.28
2022-10-11T10:11:59.480Z,100266.69
2022-10-11T10:13:43.392Z,100266.34
2022-10-11T10:15:18.773Z,100263.88
2022-10-11T10:16:58.274Z,100271.63
2022-10-11T10:18:34.137Z,100270.59
2022-10-11T10:20:06.484Z,100271.41
2022-10-11T10:21:49.269Z,100273.00
2022-10-11T10:23:26.087Z,100269.78
2022-10-11T10:24:58.975Z,100268.72
2022-10-11T10:26:31.498Z,100268.25
2022-10-11T10:28:05.043Z,100265.88
2022-10-11T10:29:37.436Z,100268.78
2022-10-11T10:31:20.896Z,100270.31
2022-10-11T10:32:59.895Z,100262.47
2022-10-11T10:34:34.086Z,100265.56
2022-10-11T10:36:34.878Z,100260.44
2022-10-11T10:38:21.735Z,100267.59
2022-10-11T10:40:01.821Z,100267.84
2022-10-11T10:41:36.077Z,100276.09
2022-10-11T10:43:15.632Z,100268.69
2022-10-11T10:44:55.195Z,100258.81
2022-10-11T10:46:29.857Z,100267.28
2022-10-11T10:48:10.797Z,100276.47
2022-10-11T10:50:02.921Z,100270.25
2022-10-11T10:51:43.228Z,100268.94
2022-10-11T10:53:25.375Z,100266.31
2022-10-11T10:55:16.050Z,100262.97
2022-10-11T10:56:57.397Z,100271.94
2022-10-11T10:58:29.448Z,100270.13
2022-10-11T11:00:13.796Z,100271.09
2022-10-11T11:01:51.513Z,100267.25
2022-10-11T11:03:31.022Z,100266.94
2022-10-11T11:05:17.557Z,100263.09
2022-10-11T11:06:51.079Z,100262.84
2022-10-11T11:08:28.652Z,100269.41
2022-10-11T11:10:12.220Z,100261.50
2022-10-11T11:11:44.174Z,100261.28
2022-10-11T11:13:38.330Z,100260.25
2022-10-11T11:15:15.060Z,100258.09
2022-10-11T11:17:02.278Z,100255.53
2022-10-11T11:18:40.039Z,100262.78
2022-10-11T11:20:19.423Z,100251.31
2022-10-11T11:22:09.236Z,100248.59
2022-10-11T11:23:49.810Z,100248.72
2022-10-11T11:25:24.103Z,100247.44
2022-10-11T11:26:56.038Z,100256.00
2022-10-11T11:28:28.029Z,100249.88
2022-10-11T11:29:59.928Z,100239.16
2022-10-11T11:31:35.007Z,100245.28
2022-10-11T11:33:06.851Z,100249.78
2022-10-11T11:34:42.495Z,100245.41
2022-10-11T11:36:16.734Z,100244.78
2022-10-11T11:37:54.080Z,100247.22
2022-10-11T11:39:31.385Z,100251.53
2022-10-11T11:41:06.319Z,100250.59
2022-10-11T11:42:50.254Z,100246.81
2022-10-11T11:44:28.569Z,100252.25
2022-10-11T11:46:04.633Z,100235.94
2022-10-11T11:47:38.101Z,100237.31
2022-10-11T11:49:33.115Z,100246.38
2022-10-11T11:51:05.286Z,100247.19
2022-10-11T11:52:39.796Z,100240.38
2022-10-11T11:54:11.881Z,100240.59
2022-10-11T11:55:55.905Z,100243.31
2022-10-11T11:57:39.800Z,100238.81
2022-10-11T11:59:17.231Z,100234.31
2022-10-11T12:00:54.469Z,100221.56
2022-10-11T12:02:39.159Z,100228.50
2022-10-11T12:04:29.547Z,100231.06
2022-10-11T12:06:13.961Z,100229.53
2022-10-11T12:07:59.648Z,100228.63
2022-10-11T12:09:32.254Z,100223.22
2022-10-11T12:11:04.742Z,100226.25
2022-10-11T12:12:37.711Z,100224.88
2022-10-11T12:14:15.875Z,100225.03
2022-10-11T12:15:59.525Z,100227.50
2022-10-11T12:17:31.732Z,100230.06
2022-10-11T12:19:03.993Z,100239.59
2022-10-11T12:20:38.730Z,100233.56
2022-10-11T12:22:37.679Z,100231.59
2022-10-11T12:24:09.628Z,100231.78
2022-10-11T12:25:43.699Z,100231.72
2022-10-11T12:27:34.293Z,100233.78
2022-10-11T12:29:28.475Z,100230.22
2022-10-11T12:31:05.324Z,100227.75
2022-10-11T12:32:38.680Z,100229.88
2022-10-11T12:34:10.525Z,100227.66
2022-10-11T12:35:54.374Z,100225.59
2022-10-11T12:37:32.277Z,100227.66
2022-10-11T12:39:19.649Z,100228.97
2022-10-11T12:40:57.106Z,100229.06
2022-10-11T12:42:29.044Z,100227.13
2022-10-11T12:44:08.935Z,100229.72
2022-10-11T12:45:41.469Z,100224.22
2022-10-11T12:47:21.735Z,100226.53
2022-10-11T12:49:14.157Z,100231.25
2022-10-11T12:50:46.191Z,100229.91
2022-10-11T12:52:18.088Z,100237.00
2022-10-11T12:54:25.879Z,100227.16
2022-10-11T12:56:01.936Z,100223.56
2022-10-11T12:57:46.339Z,100232.25
2022-10-11T12:59:21.205Z,100228.50
2022-10-11T13:00:55.177Z,100229.63
2022-10-11T13:02:30.771Z,100222.59
2022-10-11T13:04:11.498Z,100222.28
2022-10-11T13:05:45.157Z,100220.50
2022-10-11T13:07:23.672Z,100216.44
2022-10-11T13:08:59.311Z,100216.00
2022-10-11T13:10:35.347Z,100216.72
2022-10-11T13:12:09.492Z,100213.34
2022-10-11T13:13:42.939Z,100221.09
2022-10-11T13:15:16.562Z,100219.69
2022-10-11T13:16:51.457Z,100217.63
2022-10-11T13:18:24.687Z,100208.16
2022-10-11T13:20:00.516Z,100209.56
2022-10-11T13:21:36.671Z,100208.16
2022-10-11T13:23:25.040Z,100212.22
2022-10-11T13:24:57.967Z,100213.69
2022-10-11T13:26:31.398Z,100214.28
2022-10-11T13:28:03.680Z,100216.91
2022-10-11T13:29:38.011Z,100213.75
2022-10-11T13:31:10.305Z,100212.66
2022-10-11T13:32:42.583Z,100215.59
2022-10-11T13:34:15.473Z,100216.00
2022-10-11T13:35:48.695Z,100221.31
2022-10-11T13:37:21.964Z,100220.59
2022-10-11T13:38:58.631Z,100216.94
2022-10-11T13:40:30.940Z,100225.91
2022-10-11T13:42:05.060Z,100225.41
2022-10-11T13:43:37.199Z,100227.22
2022-10-11T13:45:10.413Z,100225.50
2022-10-11T13:46:42.495Z,100229.38
2022-10-11T13:48:15.649Z,100223.88
2022-10-11T13:49:50.482Z,100225.28
2022-10-11T13:51:32.208Z,100229.88
2022-10-11T13:53:21.211Z,100220.88
2022-10-11T13:54:53.244Z,100229.97
2022-10-11T13:56:26.286Z,100226.38
2022-10-11T13:57:59.655Z,100229.47
2022-10-11T13:59:31.670Z,100220.56
2022-10-11T14:01:23.922Z,100220.22
2022-10-11T14:03:28.539Z,100221.75
2022-10-11T14:05:00.493Z,100217.41
2022-10-11T14:06:48.719Z,100216.25
2022-10-11T14:08:29.724Z,100231.94
2022-10-11T14:10:01.821Z,100225.63
2022-10-11T14:11:36.603Z,100220.50
2022-10-11T14:13:23.831Z,100233.41
2022-10-11T14:14:55.794Z,100227.69
2022-10-11T14:16:28.986Z,100230.00
2022-10-11T14:18:02.048Z,100230.50
2022-10-11T14:19:33.940Z,100232.91
2022-10-11T14:21:26.137Z,100232.19
2022-10-11T14:22:58.656Z,100228.00
2022-10-11T14:24:30.587Z,100232.91
2022-10-11T14:26:02.697Z,100229.22
2022-10-11T14:27:36.283Z,100230.41
2022-10-11T14:29:11.525Z,100231.75
2022-10-11T14:30:43.483Z,100226.34
2022-10-11T14:32:18.093Z,100226.47
2022-10-11T14:33:50.149Z,100230.66
2022-10-11T14:35:23.598Z,100233.50
2022-10-11T14:36:55.535Z,100237.19
2022-10-11T14:38:27.379Z,100236.00
2022-10-11T14:39:59.938Z,100237.53
2022-10-11T14:41:31.849Z,100231.91
2022-10-11T14:43:03.836Z,100229.78
2022-10-11T14:44:35.802Z,100229.78
2022-10-11T14:46:10.023Z,100231.09
2022-10-11T14:47:43.295Z,100229.06
2022-10-11T14:49:19.116Z,100230.50
2022-10-11T14:50:53.180Z,100233.34
2022-10-11T14:52:25.241Z,100229.88
2022-10-11T14:53:57.073Z,100232.03
2022-10-11T14:55:30.084Z,100227.25
2022-10-11T14:57:03.189Z,100227.25
2022-10-11T14:58:35.183Z,100234.66
2022-10-11T15:00:14.709Z,100235.38
2022-10-11T15:01:46.925Z,100234.56
2022-10-11T15:03:18.925Z,100235.66
2022-10-11T15:04:50.844Z,100230.03
2022-10-11T15:06:24.769Z,100240.78
2022-10-11T15:07:57.469Z,100237.59
2022-10-11T15:09:30.292Z,100233.91
2022-10-11T15:11:02.310Z,100239.63
2022-10-11T15:12:34.176Z,100236.44
2022-10-11T15:14:06.534Z,100238.03
2022-10-11T15:15:40.950Z,100236.84
2022-10-11T15:17:12.934Z,100244.00
2022-10-11T15:18:50.783Z,100246.88
2022-10-11T15:20:27.482Z,100244.59
2022-10-11T15:22:02.299Z,100243.97
2022-10-11T15:23:34.313Z,100238.84
2022-10-11T15:25:06.357Z,100232.16
2022-10-11T15:26:38.443Z,100243.50
2022-10-11T15:28:19.026Z,100248.59
2022-10-11T15:29:51.057Z,100241.19
2022-10-11T15:31:23.154Z,100249.31
2022-10-11T15:32:55.078Z,100256.56
2022-10-11T15:34:27.046Z,100253.56
2022-10-11T15:35:58.990Z,100251.88
2022-10-11T15:37:35.138Z,100250.34
2022-10-11T15:39:26.146Z,100250.53
2022-10-11T15:40:58.571Z,100257.78
2022-10-11T15:42:30.876Z,100253.22
2022-10-11T15:44:02.844Z,100253.69
2022-10-11T15:45:35.473Z,100249.84
2022-10-11T15:47:07.342Z,100257.22
2022-10-11T15:48:39.556Z,100254.97
2022-10-11T15:50:34.603Z,100253.25
2022-10-11T15:52:06.600Z,100246.66
2022-10-11T15:53:38.622Z,100239.63
2022-10-11T15:55:10.562Z,100253.06
2022-10-11T15:56:43.322Z,100248.66
2022-10-11T15:58:16.925Z,100256.00
2022-10-11T15:59:48.767Z,100252.44
2022-10-11T16:01:20.771Z,100249.06
2022-10-11T16:02:53.095Z,100251.22
2022-10-11T16:04:25.062Z,100252.53
2022-10-11T16:06:02.395Z,100254.56
2022-10-11T16:07:36.722Z,100258.72
2022-10-11T16:09:08.652Z,100258.00
2022-10-11T16:10:41.318Z,100260.91
2022-10-11T16:12:13.219Z,100267.66
2022-10-11T16:13:45.317Z,100262.78
2022-10-11T16:15:17.517Z,100269.13
2022-10-11T16:16:49.705Z,100264.22
2022-10-11T16:18:22.281Z,100267.66
2022-10-11T16:19:54.284Z,100266.50
2022-10-11T16:21:26.203Z,100265.19
2022-10-11T16:22:58.173Z,100271.25
2022-10-11T16:24:30.021Z,100269.22
2022-10-11T16:26:04.314Z,100273.16
2022-10-11T16:27:36.523Z,100278.50
2022-10-11T16:29:08.465Z,100279.69
2022-10-11T16:30:43.266Z,100274.19
2022-10-11T16:32:15.272Z,100274.78
2022-10-11T16:33:47.813Z,100281.44
2022-10-11T16:35:19.947Z,100278.69
2022-10-11T16:36:51.963Z,100282.16
2022-10-11T16:38:23.922Z,100280.00
2022-10-11T16:39:55.853Z,100277.97
2022-10-11T16:41:28.023Z,100275.09
2022-10-11T16:43:07.442Z,100277.97
2022-10-11T16:44:42.626Z,100288.81
2022-10-11T16:46:14.478Z,100277.59
2022-10-11T16:47:46.461Z,100289.00
2022-10-11T16:49:20.103Z,100286.25
2022-10-11T16:50:52.111Z,100278.03
2022-10-11T16:52:24.018Z,100286.81
2022-10-11T16:53:55.969Z,100294.59
2022-10-11T16:55:27.912Z,100289.00
2022-10-11T16:56:59.929Z,100292.13
2022-10-11T16:58:31.820Z,100297.31
2022-10-11T17:00:08.620Z,100296.59
2022-10-11T17:01:40.508Z,100298.53
2022-10-11T17:03:12.503Z,100291.13
2022-10-11T17:04:44.575Z,100302.53
2022-10-11T17:06:16.852Z,100298.97
2022-10-11T17:07:48.759Z,100301.09
2022-10-11T17:09:20.818Z,100301.81
2022-10-11T17:10:57.843Z,100296.78
2022-10-11T17:12:31.957Z,100301.00
2022-10-11T17:14:05.236Z,100302.28
2022-10-11T17:15:37.311Z,100304.88
2022-10-11T17:17:09.870Z,100302.75
2022-10-11T17:18:41.947Z,100307.19
2022-10-11T17:20:13.855Z,100307.81
2022-10-11T17:21:45.839Z,100309.69
2022-10-11T17:23:17.774Z,100308.84
2022-10-11T17:24:49.770Z,100313.44
2022-10-11T17:26:23.450Z,100318.78
2022-10-11T17:27:58.323Z,100313.16
2022-10-11T17:29:30.830Z,100313.75
2022-10-11T17:31:04.145Z,100322.56
2022-10-11T17:32:36.270Z,100316.81
2022-10-11T17:34:08.213Z,100319.28
2022-10-11T17:35:40.137Z,100323.03
2022-10-11T17:37:12.690Z,100318.28
2022-10-11T17:38:44.658Z,100327.06
2022-10-11T17:40:16.601Z,100325.34
2022-10-11T17:41:48.575Z,100325.66
2022-10-11T17:43:20.538Z,100332.16
2022-10-11T17:44:52.483Z,100325.69
2022-10-11T17:46:25.414Z,100324.66
2022-10-11T17:47:57.282Z,100323.09
2022-10-11T17:49:29.239Z,100324.50
2022-10-11T17:51:05.591Z,100326.69
2022-10-11T17:52:37.751Z,100322.34
2022-10-11T17:54:12.930Z,100330.72
2022-10-11T17:55:45.405Z,100325.25
2022-10-11T17:57:17.287Z,100324.38
2022-10-11T17:58:49.559Z,100320.91
2022-10-11T18:00:21.412Z,100317.31
2022-10-11T18:01:53.965Z,100322.09
2022-10-11T18:03:25.819Z,100322.63
2022-10-11T18:04:58.064Z,100323.25
2022-10-11T18:06:31.074Z,100326.56
2022-10-11T18:08:03.039Z,100326.97
2022-10-11T18:09:35.050Z,100321.34
2022-10-11T18:11:11.042Z,100324.09
2022-10-11T18:12:42.933Z,100319.19
2022-10-11T18:14:15.098Z,100328.72
2022-10-11T18:15:51.390Z,100321.06
2022-10-11T18:17:25.457Z,100320.66
2022-10-11T18:18:57.937Z,100322.38
2022-10-11T18:20:29.851Z,100327.69
2022-10-11T18:22:06.674Z,100322.81
2022-10-11T18:23:39.184Z,100322.66
2022-10-11T18:25:11.079Z,100322.53
2022-10-11T18:26:43.756Z,100322.66
2022-10-11T18:28:18.706Z,100321.81
2022-10-11T18:29:50.772Z,100316.63
2022-10-11T18:31:23.942Z,100318.06
2022-10-11T18:32:55.867Z,100314.44
2022-10-11T18:34:29.087Z,100309.97
2022-10-11T18:36:01.467Z,100313.88
2022-10-11T18:37:33.337Z,100313.16
2022-10-11T18:39:06.608Z,100314.44
2022-10-11T18:40:42.228Z,100318.78
2022-10-11T18:42:16.795Z,100319.22
2022-10-11T18:43:52.482Z,100325.69
2022-10-11T18:45:24.561Z,100317.91
2022-10-11T18:46:56.628Z,100316.16
2022-10-11T18:48:28.610Z,100320.19
2022-10-11T18:50:00.462Z,100316.31
2022-10-11T18:51:34.030Z,100315.72
2022-10-11T18:53:06.922Z,100322.63
2022-10-11T18:54:38.938Z,100326.09
2022-10-11T18:56:12.082Z,100317.56
2022-10-11T18:57:44.431Z,100314.16
2022-10-11T18:59:16.361Z,100318.19
2022-10-11T19:00:48.370Z,100316.16
2022-10-11T19:02:20.285Z,100310.09
2022-10-11T19:03:54.013Z,100314.84
2022-10-11T19:05:25.931Z,100313.25
2022-10-11T19:06:58.079Z,100311.69
2022-10-11T19:08:29.944Z,100312.41
2022-10-11T19:10:02.949Z,100302.91
2022-10-11T19:11:34.869Z,100306.53
2022-10-11T19:13:06.850Z,100305.06
2022-10-11T19:14:38.766Z,100311.25
2022-10-11T19:16:12.929Z,100304.91
2022-10-11T19:17:44.794Z,100307.66
2022-10-11T19:19:20.589Z,100308.38
2022-10-11T19:20:52.694Z,100304.91
2022-10-11T19:22:24.748Z,100313.84
2022-10-11T19:23:56.896Z,100313.25
2022-10-11T19:25:28.972Z,100316.59
2022-10-11T19:27:03.267Z,100324.06
2022-10-11T19:28:35.246Z,100315.59
2022-10-11T19:30:07.443Z,100320.19
2022-10-11T19:31:44.577Z,100323.53
2022-10-11T19:33:16.782Z,100320.78
2022-10-11T19:34:48.746Z,100324.81
2022-10-11T19:36:20.624Z,100322.81
2022-10-11T19:37:52.573Z,100322.81